createdAt,value
2019-05-30T00:02:09.715Z,64.07
2019-05-30T00:04:36.424Z,64.18
2019-05-30T00:07:02.566Z,64.31
2019-05-30T00:09:28.447Z,64.42
2019-05-30T00:11:54.730Z,64.48
2019-05-30T00:14:20.803Z,64.56
2019-05-30T00:16:46.694Z,64.61
2019-05-30T00:19:12.787Z,64.60
2019-05-30T00:21:38.719Z,64.64
2019-05-30T00:24:06.112Z,64.60
2019-05-30T00:26:32.366Z,64.78
2019-05-30T00:28:58.387Z,64.84
2019-05-30T00:31:24.328Z,64.88
2019-05-30T00:33:50.698Z,64.94
2019-05-30T00:36:16.697Z,65.00
2019-05-30T00:38:42.723Z,65.02
2019-05-30T00:41:08.804Z,64.99
2019-05-30T00:43:34.919Z,64.96
2019-05-30T00:46:02.087Z,64.94
2019-05-30T00:48:28.376Z,65.00
2019-05-30T00:50:54.288Z,64.94
2019-05-30T00:53:20.402Z,64.98
2019-05-30T00:55:46.528Z,65.06
2019-05-30T00:58:12.428Z,65.02
2019-05-30T01:00:43.665Z,65.15
2019-05-30T01:03:08.489Z,65.19
2019-05-30T01:05:34.267Z,65.25
2019-05-30T01:08:00.899Z,65.38
2019-05-30T01:10:27.118Z,65.40
2019-05-30T01:12:53.013Z,65.57
2019-05-30T01:15:19.144Z,65.69
2019-05-30T01:17:45.134Z,65.57
2019-05-30T01:20:11.453Z,65.37
2019-05-30T01:22:37.467Z,65.49
2019-05-30T01:25:07.888Z,65.46
2019-05-30T01:27:33.933Z,65.39
2019-05-30T01:29:59.891Z,65.25
2019-05-30T01:32:29.463Z,65.25
2019-05-30T01:34:57.609Z,65.14
2019-05-30T01:37:23.599Z,65.25
2019-05-30T01:39:49.796Z,65.31
2019-05-30T01:42:15.919Z,65.53
2019-05-30T01:44:41.840Z,65.55
2019-05-30T01:47:08.369Z,65.57
2019-05-30T01:49:34.512Z,65.61
2019-05-30T01:52:00.540Z,65.78
2019-05-30T01:54:26.732Z,65.93
2019-05-30T01:56:52.644Z,66.14
2019-05-30T01:59:18.691Z,66.25
2019-05-30T02:01:44.789Z,66.18
2019-05-30T02:04:10.737Z,66.25
2019-05-30T02:06:38.178Z,66.24
2019-05-30T02:09:05.930Z,66.25
2019-05-30T02:11:31.838Z,66.31
2019-05-30T02:13:57.751Z,66.56
2019-05-30T02:16:23.875Z,66.56
2019-05-30T02:18:49.788Z,66.54
2019-05-30T02:21:15.931Z,66.58
2019-05-30T02:23:42.492Z,66.64
2019-05-30T02:26:08.398Z,66.73
2019-05-30T02:28:34.352Z,66.86
2019-05-30T02:31:00.593Z,66.87
2019-05-30T02:33:26.578Z,66.91
2019-05-30T02:35:52.563Z,66.92
2019-05-30T02:38:18.720Z,66.87
2019-05-30T02:40:44.642Z,66.80
2019-05-30T02:43:12.043Z,66.84
2019-05-30T02:45:38.555Z,66.88
2019-05-30T02:48:05.455Z,66.96
2019-05-30T02:50:31.801Z,66.99
2019-05-30T02:52:57.882Z,66.97
2019-05-30T02:55:23.791Z,67.04
2019-05-30T02:57:49.738Z,67.16
2019-05-30T03:00:18.381Z,67.11
2019-05-30T03:02:44.410Z,67.15
2019-05-30T03:05:12.779Z,67.15
2019-05-30T03:07:38.718Z,67.16
2019-05-30T03:10:07.560Z,67.16
2019-05-30T03:12:33.870Z,67.21
2019-05-30T03:15:02.308Z,67.28
2019-05-30T03:17:28.090Z,67.30
2019-05-30T03:19:54.217Z,67.23
2019-05-30T03:22:20.334Z,67.15
2019-05-30T03:24:46.437Z,67.16
2019-05-30T03:27:14.216Z,67.22
2019-05-30T03:29:40.622Z,67.15
2019-05-30T03:32:44.987Z,67.12
2019-05-30T03:34:34.899Z,67.04
2019-05-30T03:37:00.986Z,67.00
2019-05-30T03:39:27.135Z,67.04
2019-05-30T03:41:53.056Z,67.05
2019-05-30T03:44:19.531Z,67.06
2019-05-30T03:46:49.273Z,66.93
2019-05-30T03:49:18.984Z,66.94
2019-05-30T03:51:46.932Z,66.85
2019-05-30T03:54:14.202Z,66.79
2019-05-30T03:56:45.102Z,66.63
2019-05-30T03:59:29.893Z,66.56
2019-05-30T04:02:06.460Z,66.47
2019-05-30T04:04:45.354Z,66.43
2019-05-30T04:07:19.416Z,66.35
2019-05-30T04:09:48.805Z,66.26
2019-05-30T04:12:24.583Z,66.19
2019-05-30T04:14:54.465Z,66.12
2019-05-30T04:17:20.363Z,66.10
2019-05-30T04:19:46.356Z,66.07
2019-05-30T04:22:13.452Z,66.03
2019-05-30T04:24:39.562Z,65.86
2019-05-30T04:27:07.767Z,65.73
2019-05-30T04:29:33.549Z,65.71
2019-05-30T04:31:59.604Z,65.56
2019-05-30T04:34:25.601Z,65.43
2019-05-30T04:36:53.360Z,65.31
2019-05-30T04:39:19.687Z,65.27
2019-05-30T04:41:47.599Z,65.30
2019-05-30T04:44:14.538Z,65.20
2019-05-30T04:46:41.605Z,65.11
2019-05-30T04:49:07.495Z,64.83
2019-05-30T04:51:33.690Z,64.68
2019-05-30T04:53:59.636Z,64.55
2019-05-30T04:56:25.634Z,64.45
2019-05-30T04:58:51.855Z,64.26
2019-05-30T05:01:19.898Z,64.02
2019-05-30T05:03:46.918Z,63.89
2019-05-30T05:06:13.826Z,63.70
2019-05-30T05:08:39.892Z,63.38
2019-05-30T05:11:05.786Z,63.29
2019-05-30T05:13:31.863Z,63.05
2019-05-30T05:15:57.809Z,62.89
2019-05-30T05:18:23.713Z,62.63
2019-05-30T05:20:49.860Z,62.10
2019-05-30T05:23:15.764Z,61.66
2019-05-30T05:25:42.675Z,61.20
2019-05-30T05:28:08.682Z,60.74
2019-05-30T05:30:34.727Z,60.03
2019-05-30T05:33:00.860Z,59.83
2019-05-30T05:35:27.134Z,59.71
2019-05-30T05:37:53.044Z,59.63
2019-05-30T05:40:20.166Z,59.54
2019-05-30T05:42:46.193Z,59.46
2019-05-30T05:45:12.709Z,59.29
2019-05-30T05:47:38.609Z,58.70
2019-05-30T05:50:05.421Z,58.56
2019-05-30T05:52:31.326Z,58.36
2019-05-30T05:54:57.220Z,57.99
2019-05-30T05:57:23.501Z,57.75
2019-05-30T05:59:49.540Z,57.47
2019-05-30T06:02:15.489Z,57.60
2019-05-30T06:04:41.748Z,57.58
2019-05-30T06:07:07.759Z,57.35
2019-05-30T06:09:33.792Z,56.84
2019-05-30T06:11:59.864Z,56.70
2019-05-30T06:14:26.208Z,56.41
2019-05-30T06:16:55.628Z,55.97
2019-05-30T06:19:21.242Z,55.17
2019-05-30T06:21:54.164Z,54.87
2019-05-30T06:24:15.530Z,54.77
2019-05-30T06:26:41.604Z,54.80
2019-05-30T06:29:07.515Z,54.75
2019-05-30T06:31:33.418Z,54.91
2019-05-30T06:33:59.527Z,54.38
2019-05-30T06:36:25.477Z,53.71
2019-05-30T06:38:51.506Z,53.56
2019-05-30T06:41:17.692Z,53.00
2019-05-30T06:43:43.616Z,52.61
2019-05-30T06:46:09.731Z,52.52
2019-05-30T06:48:35.830Z,52.43
2019-05-30T06:51:01.851Z,52.24
2019-05-30T06:53:27.849Z,52.30
2019-05-30T06:55:53.872Z,52.17
2019-05-30T06:58:38.279Z,52.29
2019-05-30T07:00:47.741Z,52.42
2019-05-30T07:03:14.008Z,52.26
2019-05-30T07:05:40.651Z,52.22
2019-05-30T07:08:06.854Z,52.11
2019-05-30T07:10:33.158Z,52.00
2019-05-30T07:12:59.210Z,52.30
2019-05-30T07:15:25.318Z,52.77
2019-05-30T07:17:51.598Z,52.87
2019-05-30T07:20:17.648Z,52.61
2019-05-30T07:22:43.556Z,52.65
2019-05-30T07:25:10.153Z,52.47
2019-05-30T07:27:36.075Z,52.51
2019-05-30T07:30:04.395Z,52.38
2019-05-30T07:32:30.501Z,52.09
2019-05-30T07:35:05.981Z,51.68
2019-05-30T07:37:24.556Z,52.02
2019-05-30T07:39:50.685Z,52.17
2019-05-30T07:42:16.705Z,51.92
2019-05-30T07:44:42.720Z,51.82
2019-05-30T07:47:08.956Z,51.00
2019-05-30T07:49:34.922Z,50.53
2019-05-30T07:52:00.965Z,50.26
2019-05-30T07:54:27.024Z,51.36
2019-05-30T07:56:52.942Z,52.13
2019-05-30T07:59:18.894Z,52.59
2019-05-30T08:01:44.982Z,53.16
2019-05-30T08:04:11.007Z,53.56
2019-05-30T08:06:37.903Z,53.81
2019-05-30T08:09:05.406Z,53.77
2019-05-30T08:11:31.382Z,53.74
2019-05-30T08:13:57.270Z,53.68
2019-05-30T08:16:23.364Z,54.02
2019-05-30T08:18:49.400Z,54.31
2019-05-30T08:21:15.402Z,54.54
2019-05-30T08:23:41.433Z,54.32
2019-05-30T08:26:07.483Z,54.24
2019-05-30T08:28:34.322Z,54.31
2019-05-30T08:31:00.475Z,54.20
2019-05-30T08:33:26.523Z,53.84
2019-05-30T08:35:52.512Z,53.62
2019-05-30T08:38:18.648Z,53.70
2019-05-30T08:40:44.807Z,53.78
2019-05-30T08:43:10.707Z,53.79
2019-05-30T08:45:37.829Z,53.97
2019-05-30T08:48:04.151Z,54.12
2019-05-30T08:50:30.297Z,54.07
2019-05-30T08:52:56.247Z,54.06
2019-05-30T08:55:22.449Z,54.36
2019-05-30T08:57:49.955Z,54.59
2019-05-30T09:00:16.852Z,54.74
2019-05-30T09:02:42.975Z,54.83
2019-05-30T09:05:09.398Z,54.45
2019-05-30T09:07:36.415Z,54.51
2019-05-30T09:10:04.873Z,54.54
2019-05-30T09:12:30.777Z,54.28
2019-05-30T09:14:56.827Z,53.92
2019-05-30T09:17:22.881Z,53.96
2019-05-30T09:19:48.788Z,54.00
2019-05-30T09:22:14.989Z,53.87
2019-05-30T09:24:42.038Z,53.14
2019-05-30T09:27:08.136Z,53.30
2019-05-30T09:29:35.408Z,53.76
2019-05-30T09:32:01.460Z,54.07
2019-05-30T09:34:27.359Z,54.19
2019-05-30T09:36:53.824Z,54.40
2019-05-30T09:39:19.750Z,54.81
2019-05-30T09:41:45.800Z,54.58
2019-05-30T09:44:11.918Z,54.60
2019-05-30T09:46:37.841Z,54.44
2019-05-30T09:49:03.854Z,53.78
2019-05-30T09:51:29.933Z,53.02
2019-05-30T09:53:55.891Z,52.73
2019-05-30T09:56:22.034Z,52.09
2019-05-30T09:58:48.154Z,51.26
2019-05-30T10:01:14.199Z,50.91
2019-05-30T10:03:40.098Z,50.55
2019-05-30T10:06:06.174Z,50.21
2019-05-30T10:08:32.123Z,50.26
2019-05-30T10:10:58.130Z,50.35
2019-05-30T10:13:24.223Z,50.68
2019-05-30T10:15:50.540Z,51.18
2019-05-30T10:18:16.444Z,51.78
2019-05-30T10:20:42.527Z,51.93
2019-05-30T10:23:08.462Z,51.82
2019-05-30T10:25:34.568Z,51.74
2019-05-30T10:28:00.759Z,51.54
2019-05-30T10:30:26.885Z,51.85
2019-05-30T10:32:53.810Z,52.13
2019-05-30T10:35:20.376Z,52.28
2019-05-30T10:37:47.117Z,52.11
2019-05-30T10:40:14.105Z,52.15
2019-05-30T10:42:40.317Z,52.41
2019-05-30T10:45:08.137Z,52.44
2019-05-30T10:47:34.048Z,52.07
2019-05-30T10:50:00.314Z,52.22
2019-05-30T10:52:26.487Z,52.53
2019-05-30T10:54:53.516Z,52.51
2019-05-30T10:57:19.660Z,52.70
2019-05-30T10:59:45.949Z,52.71
2019-05-30T11:02:13.348Z,52.36
2019-05-30T11:04:39.574Z,52.31
2019-05-30T11:07:12.326Z,52.14
2019-05-30T11:09:42.075Z,52.74
2019-05-30T11:12:07.984Z,53.26
2019-05-30T11:14:33.911Z,52.83
2019-05-30T11:17:00.154Z,53.03
2019-05-30T11:19:26.040Z,53.77
2019-05-30T11:21:52.868Z,53.47
2019-05-30T11:24:19.848Z,53.75
2019-05-30T11:26:45.742Z,53.89
2019-05-30T11:29:11.880Z,53.79
2019-05-30T11:31:38.092Z,53.98
2019-05-30T11:34:04.081Z,54.10
2019-05-30T11:36:30.113Z,53.63
2019-05-30T11:38:57.449Z,53.42
2019-05-30T11:41:23.407Z,53.57
2019-05-30T11:43:51.442Z,53.70
2019-05-30T11:46:17.754Z,53.77
2019-05-30T11:48:43.638Z,52.79
2019-05-30T11:51:09.558Z,52.77
2019-05-30T11:53:35.681Z,53.23
2019-05-30T11:56:01.590Z,53.24
2019-05-30T11:58:27.523Z,53.53
2019-05-30T12:00:54.711Z,53.34
2019-05-30T12:03:20.996Z,52.94
2019-05-30T12:05:46.910Z,53.34
2019-05-30T12:08:13.073Z,53.74
2019-05-30T12:10:38.989Z,54.25
2019-05-30T12:13:05.323Z,53.79
2019-05-30T12:15:31.574Z,53.58
2019-05-30T12:17:57.558Z,53.39
2019-05-30T12:20:23.706Z,53.71
2019-05-30T12:22:49.919Z,53.67
2019-05-30T12:25:16.818Z,53.50
2019-05-30T12:27:43.853Z,53.15
2019-05-30T12:30:10.640Z,52.74
2019-05-30T12:32:36.529Z,52.82
2019-05-30T12:35:05.659Z,53.07
2019-05-30T12:37:31.862Z,53.19
2019-05-30T12:39:58.671Z,53.25
2019-05-30T12:42:24.827Z,53.39
2019-05-30T12:44:50.823Z,53.46
2019-05-30T12:47:16.730Z,53.49
2019-05-30T12:49:42.694Z,53.71
2019-05-30T12:52:08.986Z,54.14
2019-05-30T12:54:34.892Z,54.51
2019-05-30T12:57:00.852Z,54.40
2019-05-30T12:59:26.917Z,54.18
2019-05-30T13:01:52.800Z,54.01
2019-05-30T13:04:18.775Z,53.61
2019-05-30T13:06:44.787Z,53.59
2019-05-30T13:09:10.801Z,53.51
2019-05-30T13:11:36.798Z,53.64
2019-05-30T13:14:03.542Z,53.53
2019-05-30T13:16:29.574Z,53.67
2019-05-30T13:18:55.945Z,53.47
2019-05-30T13:21:22.295Z,53.34
2019-05-30T13:23:48.195Z,53.55
2019-05-30T13:26:14.207Z,53.62
2019-05-30T13:28:40.434Z,53.50
2019-05-30T13:31:07.082Z,53.76
2019-05-30T13:33:33.299Z,54.01
2019-05-30T13:35:59.397Z,54.30
2019-05-30T13:38:26.856Z,54.44
2019-05-30T13:40:53.001Z,54.20
2019-05-30T13:43:19.145Z,54.23
2019-05-30T13:45:45.290Z,54.37
2019-05-30T13:48:11.226Z,54.53
2019-05-30T13:50:37.314Z,55.10
2019-05-30T13:53:03.461Z,55.29
2019-05-30T13:55:29.480Z,55.47
2019-05-30T13:57:55.466Z,55.28
2019-05-30T14:00:21.783Z,55.27
2019-05-30T14:02:47.690Z,55.51
2019-05-30T14:05:16.021Z,55.59
2019-05-30T14:07:42.038Z,55.74
2019-05-30T14:10:09.162Z,55.56
2019-05-30T14:12:35.458Z,55.59
2019-05-30T14:15:06.494Z,55.72
2019-05-30T14:17:29.494Z,55.90
2019-05-30T14:19:55.606Z,56.16
2019-05-30T14:22:21.520Z,56.27
2019-05-30T14:24:47.527Z,56.44
2019-05-30T14:27:13.617Z,56.40
2019-05-30T14:29:39.502Z,56.51
2019-05-30T14:32:05.794Z,56.59
2019-05-30T14:34:32.181Z,56.77
2019-05-30T14:36:58.166Z,56.90
2019-05-30T14:39:24.172Z,57.00
2019-05-30T14:41:50.192Z,57.29
2019-05-30T14:44:16.116Z,57.30
2019-05-30T14:46:42.003Z,57.54
2019-05-30T14:49:08.621Z,57.51
2019-05-30T14:51:35.451Z,57.83
2019-05-30T14:54:01.490Z,58.16
2019-05-30T14:56:27.605Z,58.48
2019-05-30T14:58:53.532Z,58.52
2019-05-30T15:01:19.423Z,58.73
2019-05-30T15:03:45.565Z,59.01
2019-05-30T15:06:15.389Z,59.52
2019-05-30T15:08:39.573Z,59.91
2019-05-30T15:11:05.745Z,60.19
2019-05-30T15:13:31.753Z,60.35
2019-05-30T15:15:57.648Z,60.60
2019-05-30T15:18:23.782Z,60.98
2019-05-30T15:20:49.699Z,61.08
2019-05-30T15:23:15.841Z,61.08
2019-05-30T15:25:42.026Z,61.44
2019-05-30T15:28:07.986Z,61.55
2019-05-30T15:30:34.033Z,61.90
2019-05-30T15:33:00.198Z,62.03
2019-05-30T15:35:26.191Z,62.20
2019-05-30T15:37:52.242Z,62.43
2019-05-30T15:40:18.930Z,62.50
2019-05-30T15:42:45.030Z,62.75
2019-05-30T15:45:13.913Z,63.15
2019-05-30T15:47:40.235Z,63.42
2019-05-30T15:50:08.197Z,63.59
2019-05-30T15:52:34.684Z,64.10
2019-05-30T15:55:00.834Z,64.63
2019-05-30T15:57:26.834Z,64.87
2019-05-30T15:59:52.765Z,65.07
2019-05-30T16:02:20.403Z,65.64
2019-05-30T16:04:46.330Z,66.35
2019-05-30T16:07:12.576Z,67.12
2019-05-30T16:09:46.675Z,67.16
2019-05-30T16:12:06.598Z,67.85
2019-05-30T16:14:32.487Z,68.21
2019-05-30T16:16:58.553Z,69.05
2019-05-30T16:19:26.448Z,69.26
2019-05-30T16:21:52.455Z,69.66
2019-05-30T16:24:18.620Z,70.41
2019-05-30T16:26:44.629Z,70.80
2019-05-30T16:29:10.550Z,71.02
2019-05-30T16:31:36.622Z,71.24
2019-05-30T16:34:02.762Z,71.49
2019-05-30T16:36:28.686Z,71.46
2019-05-30T16:38:54.792Z,71.89
2019-05-30T16:41:20.825Z,72.50
2019-05-30T16:43:46.761Z,72.46
2019-05-30T16:46:12.745Z,72.89
2019-05-30T16:48:38.746Z,72.93
2019-05-30T16:51:04.912Z,73.25
2019-05-30T16:53:31.165Z,73.30
2019-05-30T16:55:57.171Z,73.68
2019-05-30T16:58:23.776Z,74.05
2019-05-30T17:00:51.986Z,74.20
2019-05-30T17:03:17.888Z,74.46
2019-05-30T17:05:43.813Z,74.51
2019-05-30T17:08:10.045Z,75.06
2019-05-30T17:10:35.955Z,75.30
2019-05-30T17:13:02.082Z,75.23
2019-05-30T17:15:28.145Z,75.58
2019-05-30T17:17:54.047Z,75.83
2019-05-30T17:20:20.577Z,75.75
2019-05-30T17:22:46.666Z,75.65
2019-05-30T17:25:12.866Z,76.40
2019-05-30T17:27:38.927Z,76.24
2019-05-30T17:30:06.417Z,76.22
2019-05-30T17:32:32.329Z,76.62
2019-05-30T17:34:58.256Z,76.55
2019-05-30T17:37:24.577Z,76.75
2019-05-30T17:39:50.521Z,76.50
2019-05-30T17:42:16.569Z,77.15
2019-05-30T17:44:42.563Z,76.75
2019-05-30T17:47:08.553Z,76.68
2019-05-30T17:49:34.577Z,76.87
2019-05-30T17:52:00.751Z,76.88
2019-05-30T17:54:27.948Z,77.34
2019-05-30T17:56:53.986Z,77.07
2019-05-30T17:59:20.263Z,76.96
2019-05-30T18:01:46.245Z,77.59
2019-05-30T18:04:12.166Z,77.62
2019-05-30T18:06:38.238Z,77.59
2019-05-30T18:09:05.711Z,77.58
2019-05-30T18:11:31.660Z,77.51
2019-05-30T18:13:57.717Z,77.63
2019-05-30T18:16:23.719Z,77.76
2019-05-30T18:18:49.617Z,78.01
2019-05-30T18:21:15.887Z,78.29
2019-05-30T18:23:44.724Z,78.36
2019-05-30T18:26:09.610Z,78.20
2019-05-30T18:28:35.869Z,78.46
2019-05-30T18:31:01.761Z,78.56
2019-05-30T18:33:28.365Z,78.51
2019-05-30T18:35:54.741Z,78.46
2019-05-30T18:38:20.743Z,78.61
2019-05-30T18:40:46.917Z,78.51
2019-05-30T18:43:12.973Z,78.30
2019-05-30T18:45:40.676Z,78.82
2019-05-30T18:48:08.200Z,78.87
2019-05-30T18:50:35.593Z,78.73
2019-05-30T18:53:01.719Z,78.98
2019-05-30T18:55:28.552Z,78.99
2019-05-30T18:57:54.707Z,79.17
2019-05-30T19:00:20.729Z,78.91
2019-05-30T19:02:46.758Z,79.00
2019-05-30T19:05:12.913Z,79.03
2019-05-30T19:07:38.914Z,78.99
2019-05-30T19:10:05.550Z,79.08
2019-05-30T19:12:32.206Z,79.29
2019-05-30T19:14:58.221Z,79.02
2019-05-30T19:17:25.342Z,79.40
2019-05-30T19:19:51.480Z,79.48
2019-05-30T19:22:17.558Z,79.29
2019-05-30T19:24:43.472Z,79.40
2019-05-30T19:27:09.637Z,79.46
2019-05-30T19:29:35.574Z,79.63
2019-05-30T19:32:01.475Z,79.68
2019-05-30T19:34:28.498Z,79.84
2019-05-30T19:36:54.477Z,79.90
2019-05-30T19:39:20.505Z,80.13
2019-05-30T19:41:56.856Z,80.23
2019-05-30T19:44:14.509Z,80.06
2019-05-30T19:46:40.430Z,79.97
2019-05-30T19:49:06.434Z,79.95
2019-05-30T19:51:33.011Z,80.11
2019-05-30T19:53:58.976Z,80.57
2019-05-30T19:56:25.035Z,80.43
2019-05-30T19:58:51.052Z,80.28
2019-05-30T20:01:16.975Z,80.42
2019-05-30T20:03:46.907Z,80.68
2019-05-30T20:06:10.915Z,80.57
2019-05-30T20:08:51.350Z,80.54
2019-05-30T20:11:04.832Z,80.97
2019-05-30T20:13:31.109Z,80.75
2019-05-30T20:15:57.045Z,80.91
2019-05-30T20:18:23.111Z,80.63
2019-05-30T20:20:57.259Z,80.72
2019-05-30T20:23:17.317Z,80.81
2019-05-30T20:25:45.868Z,80.73
2019-05-30T20:28:11.132Z,80.99
2019-05-30T20:30:37.192Z,81.13
2019-05-30T20:33:03.548Z,80.98
2019-05-30T20:35:29.584Z,81.12
2019-05-30T20:37:55.501Z,81.06
2019-05-30T20:40:21.721Z,81.23
2019-05-30T20:42:47.630Z,81.63
2019-05-30T20:45:14.343Z,81.70
2019-05-30T20:47:42.448Z,81.99
2019-05-30T20:50:09.122Z,81.92
2019-05-30T20:52:38.690Z,82.03
2019-05-30T20:55:07.422Z,82.21
2019-05-30T20:57:34.274Z,82.10
2019-05-30T21:00:00.322Z,82.06
2019-05-30T21:02:29.312Z,82.06
2019-05-30T21:04:54.505Z,82.10
2019-05-30T21:07:20.629Z,82.22
2019-05-30T21:09:48.462Z,82.06
2019-05-30T21:12:14.588Z,81.94
2019-05-30T21:14:44.095Z,82.03
2019-05-30T21:17:10.968Z,82.37
2019-05-30T21:19:37.780Z,82.39
2019-05-30T21:22:03.708Z,82.21
2019-05-30T21:24:29.888Z,82.61
2019-05-30T21:26:56.003Z,82.55
2019-05-30T21:29:21.893Z,82.57
2019-05-30T21:31:47.943Z,82.67
2019-05-30T21:34:16.235Z,82.63
2019-05-30T21:36:42.173Z,82.96
2019-05-30T21:39:08.279Z,82.85
2019-05-30T21:41:34.300Z,82.72
2019-05-30T21:44:00.213Z,82.80
2019-05-30T21:46:26.340Z,82.80
2019-05-30T21:48:52.260Z,82.92
2019-05-30T21:51:18.144Z,83.00
2019-05-30T21:53:45.565Z,83.11
2019-05-30T21:56:13.003Z,83.26
2019-05-30T21:58:40.016Z,83.17
2019-05-30T22:01:21.954Z,83.29
2019-05-30T22:03:48.753Z,83.28
2019-05-30T22:06:14.756Z,83.46
2019-05-30T22:08:41.054Z,83.57
2019-05-30T22:11:07.257Z,83.57
2019-05-30T22:13:33.269Z,83.61
2019-05-30T22:15:59.432Z,83.73
2019-05-30T22:18:25.419Z,83.75
2019-05-30T22:20:52.115Z,83.79
2019-05-30T22:23:18.146Z,84.01
2019-05-30T22:25:44.262Z,83.78
2019-05-30T22:28:10.238Z,83.82
2019-05-30T22:30:36.407Z,83.90
2019-05-30T22:33:02.569Z,84.06
2019-05-30T22:35:28.666Z,84.10
2019-05-30T22:37:54.719Z,84.04
2019-05-30T22:40:20.775Z,84.02
2019-05-30T22:42:46.654Z,84.08
2019-05-30T22:45:12.874Z,84.09
2019-05-30T22:47:39.017Z,84.12
2019-05-30T22:50:06.520Z,84.19
2019-05-30T22:52:32.492Z,84.14
2019-05-30T22:54:58.440Z,84.18
2019-05-30T22:57:24.445Z,84.11
2019-05-30T22:59:50.932Z,84.18
2019-05-30T23:02:16.940Z,84.16
2019-05-30T23:04:42.954Z,84.28
2019-05-30T23:07:08.993Z,84.27
2019-05-30T23:09:35.028Z,84.35
2019-05-30T23:12:01.054Z,84.22
2019-05-30T23:14:27.040Z,84.17
2019-05-30T23:16:52.937Z,84.13
2019-05-30T23:19:18.950Z,84.33
2019-05-30T23:21:45.020Z,84.26
2019-05-30T23:24:11.059Z,84.26
2019-05-30T23:26:37.064Z,84.32
2019-05-30T23:29:03.305Z,84.27
2019-05-30T23:31:29.250Z,84.39
2019-05-30T23:33:56.385Z,84.26
2019-05-30T23:36:22.650Z,84.18
2019-05-30T23:38:48.793Z,84.14
2019-05-30T23:41:14.710Z,84.14
2019-05-30T23:43:55.423Z,84.09
2019-05-30T23:46:08.516Z,84.18
2019-05-30T23:48:34.501Z,84.29
2019-05-30T23:51:00.619Z,84.31
2019-05-30T23:53:26.722Z,84.25
2019-05-30T23:55:52.613Z,84.21
2019-05-30T23:58:18.709Z,84.22
